createdAt,value
2018-12-04T00:00:56.054Z,4.00
2018-12-04T00:03:23.713Z,0.00
2018-12-04T00:05:51.353Z,0.40
2018-12-04T00:08:18.989Z,3.00
2018-12-04T00:10:46.889Z,2.20
2018-12-04T00:13:14.506Z,0.00
2018-12-04T00:15:42.132Z,1.00
2018-12-04T00:18:10.109Z,1.00
2018-12-04T00:20:38.177Z,0.00
2018-12-04T00:23:06.290Z,0.00
2018-12-04T00:25:33.894Z,0.00
2018-12-04T00:28:01.631Z,0.00
2018-12-04T00:30:29.644Z,0.00
2018-12-04T00:32:57.665Z,0.00
2018-12-04T00:35:25.312Z,0.00
2018-12-04T00:37:52.932Z,0.00
2018-12-04T00:40:20.917Z,0.00
2018-12-04T00:42:48.585Z,0.00
2018-12-04T00:45:16.229Z,0.00
2018-12-04T00:47:44.291Z,0.00
2018-12-04T00:50:11.893Z,0.00
2018-12-04T00:52:39.502Z,0.00
2018-12-04T00:55:07.082Z,0.00
2018-12-04T00:57:35.125Z,0.00
2018-12-04T01:00:02.711Z,0.00
2018-12-04T01:02:30.284Z,0.00
2018-12-04T01:04:57.935Z,0.00
2018-12-04T01:07:25.869Z,0.00
2018-12-04T01:09:53.469Z,0.00
2018-12-04T01:12:21.079Z,0.00
2018-12-04T01:14:48.677Z,0.00
2018-12-04T01:17:17.620Z,0.00
2018-12-04T01:19:45.283Z,0.00
2018-12-04T01:22:12.874Z,0.00
2018-12-04T01:24:40.482Z,0.00
2018-12-04T01:27:08.388Z,0.00
2018-12-04T01:29:36.889Z,0.00
2018-12-04T01:32:05.108Z,0.00
2018-12-04T01:34:32.718Z,0.00
2018-12-04T01:37:00.706Z,0.00
2018-12-04T01:39:28.317Z,0.00
2018-12-04T01:41:55.937Z,0.00
2018-12-04T01:44:23.545Z,0.00
2018-12-04T01:46:51.162Z,0.00
2018-12-04T01:49:19.218Z,0.00
2018-12-04T01:51:46.861Z,0.00
2018-12-04T01:54:14.464Z,0.00
2018-12-04T01:56:42.092Z,0.80
2018-12-04T01:59:10.086Z,0.00
2018-12-04T02:01:37.669Z,0.00
2018-12-04T02:04:06.539Z,0.00
2018-12-04T02:06:34.174Z,0.00
2018-12-04T02:09:02.167Z,0.00
2018-12-04T02:11:29.784Z,0.20
2018-12-04T02:13:57.405Z,0.00
2018-12-04T02:16:25.349Z,0.00
2018-12-04T02:18:52.988Z,1.00
2018-12-04T02:21:20.629Z,0.00
2018-12-04T02:23:48.265Z,0.00
2018-12-04T02:26:16.198Z,0.00
2018-12-04T02:28:43.816Z,1.00
2018-12-04T02:31:11.420Z,0.80
2018-12-04T02:33:38.985Z,0.40
2018-12-04T02:36:07.034Z,0.00
2018-12-04T02:38:34.692Z,1.40
2018-12-04T02:41:02.287Z,1.00
2018-12-04T02:43:29.922Z,1.00
2018-12-04T02:45:57.536Z,0.60
2018-12-04T02:48:25.130Z,1.00
2018-12-04T02:50:53.226Z,0.60
2018-12-04T02:53:21.470Z,0.80
2018-12-04T02:55:49.060Z,1.00
2018-12-04T02:58:17.050Z,0.00
2018-12-04T03:00:44.946Z,0.00
2018-12-04T03:03:12.524Z,0.00
2018-12-04T03:05:40.153Z,1.00
2018-12-04T03:08:08.238Z,0.80
2018-12-04T03:10:35.809Z,2.60
2018-12-04T03:13:03.437Z,1.00
2018-12-04T03:15:31.710Z,1.00
2018-12-04T03:17:59.374Z,1.00
2018-12-04T03:20:27.011Z,1.00
2018-12-04T03:22:54.618Z,1.00
2018-12-04T03:25:22.623Z,0.00
2018-12-04T03:27:50.209Z,0.00
2018-12-04T03:30:17.787Z,0.40
2018-12-04T03:32:45.865Z,0.00
2018-12-04T03:35:13.475Z,0.00
2018-12-04T03:37:41.052Z,0.00
2018-12-04T03:40:08.658Z,1.00
2018-12-04T03:42:36.639Z,0.00
2018-12-04T03:45:04.193Z,0.80
2018-12-04T03:47:31.781Z,0.60
2018-12-04T03:49:59.405Z,0.00
2018-12-04T03:52:27.317Z,0.00
2018-12-04T03:54:54.917Z,0.20
2018-12-04T03:57:23.473Z,0.00
2018-12-04T03:59:51.076Z,0.40
2018-12-04T04:02:19.070Z,0.80
2018-12-04T04:04:46.661Z,-0.20
2018-12-04T04:07:14.234Z,0.00
2018-12-04T04:09:41.798Z,0.00
2018-12-04T04:12:10.048Z,0.00
2018-12-04T04:14:37.711Z,0.00
2018-12-04T04:17:05.317Z,0.00
2018-12-04T04:19:32.958Z,0.00
2018-12-04T04:22:00.968Z,0.00
2018-12-04T04:24:28.602Z,0.00
2018-12-04T04:26:56.219Z,0.00
2018-12-04T04:29:23.850Z,1.00
2018-12-04T04:31:54.856Z,0.00
2018-12-04T04:34:22.469Z,0.00
2018-12-04T04:36:50.049Z,0.00
2018-12-04T04:39:17.698Z,0.00
2018-12-04T04:41:45.801Z,0.00
2018-12-04T04:44:13.386Z,0.00
2018-12-04T04:46:40.973Z,0.00
2018-12-04T04:49:09.270Z,0.00
2018-12-04T04:51:37.262Z,0.00
2018-12-04T04:54:04.885Z,0.00
2018-12-04T04:56:32.484Z,0.00
2018-12-04T04:59:00.086Z,0.00
2018-12-04T05:01:28.105Z,0.00
2018-12-04T05:03:55.767Z,0.00
2018-12-04T05:06:23.410Z,0.00
2018-12-04T05:08:51.043Z,0.00
2018-12-04T05:11:18.946Z,0.00
2018-12-04T05:13:46.538Z,0.00
2018-12-04T05:16:14.125Z,0.00
2018-12-04T05:18:41.777Z,0.00
2018-12-04T05:21:09.798Z,0.00
2018-12-04T05:23:37.637Z,0.00
2018-12-04T05:26:05.245Z,0.00
2018-12-04T05:28:33.186Z,0.00
2018-12-04T05:31:00.803Z,0.00
2018-12-04T05:33:29.333Z,0.00
2018-12-04T05:36:00.815Z,1.20
2018-12-04T05:38:28.405Z,0.00
2018-12-04T05:40:55.977Z,0.20
2018-12-04T05:43:23.871Z,0.00
2018-12-04T05:45:51.514Z,0.00
2018-12-04T05:48:19.131Z,0.00
2018-12-04T05:50:47.056Z,0.00
2018-12-04T05:53:14.665Z,0.00
2018-12-04T05:55:42.314Z,0.00
2018-12-04T05:58:10.361Z,0.40
2018-12-04T06:00:38.007Z,0.00
2018-12-04T06:03:05.642Z,1.00
2018-12-04T06:05:33.550Z,0.20
2018-12-04T06:08:01.218Z,0.40
2018-12-04T06:10:28.794Z,0.60
2018-12-04T06:12:56.759Z,-0.20
2018-12-04T06:15:24.378Z,2.20
2018-12-04T06:17:51.945Z,1.00
2018-12-04T06:20:19.824Z,0.20
2018-12-04T06:22:47.405Z,3.00
2018-12-04T06:25:15.094Z,1.00
2018-12-04T06:27:43.186Z,2.20
2018-12-04T06:30:10.790Z,4.00
2018-12-04T06:32:38.406Z,1.40
2018-12-04T06:35:07.079Z,3.00
2018-12-04T06:37:34.757Z,0.20
2018-12-04T06:40:02.386Z,1.40
2018-12-04T06:42:30.333Z,1.00
2018-12-04T06:44:57.909Z,3.40
2018-12-04T06:47:25.534Z,3.00
2018-12-04T06:49:53.529Z,2.60
2018-12-04T06:52:21.144Z,2.20
2018-12-04T06:54:48.739Z,2.20
2018-12-04T06:57:16.693Z,1.00
2018-12-04T06:59:44.270Z,3.00
2018-12-04T07:02:11.926Z,1.80
2018-12-04T07:04:40.006Z,0.40
2018-12-04T07:07:07.606Z,2.60
2018-12-04T07:09:35.180Z,1.00
2018-12-04T07:12:03.091Z,2.20
2018-12-04T07:14:30.694Z,3.00
2018-12-04T07:16:58.297Z,1.80
2018-12-04T07:19:26.409Z,2.20
2018-12-04T07:21:54.042Z,1.00
2018-12-04T07:24:21.642Z,0.40
2018-12-04T07:26:49.561Z,2.60
2018-12-04T07:29:17.156Z,2.20
2018-12-04T07:31:44.759Z,1.00
2018-12-04T07:34:12.755Z,1.00
2018-12-04T07:36:40.366Z,0.00
2018-12-04T07:39:08.288Z,1.00
2018-12-04T07:41:37.114Z,0.60
2018-12-04T07:44:04.734Z,0.00
2018-12-04T07:46:32.360Z,1.40
2018-12-04T07:49:00.369Z,1.40
2018-12-04T07:51:28.032Z,1.00
2018-12-04T07:53:58.660Z,2.20
2018-12-04T07:56:26.642Z,1.00
2018-12-04T07:58:54.269Z,0.60
2018-12-04T08:01:21.857Z,3.00
2018-12-04T08:03:50.542Z,0.80
2018-12-04T08:06:18.917Z,1.40
2018-12-04T08:08:46.504Z,1.00
2018-12-04T08:11:14.549Z,1.00
2018-12-04T08:13:42.146Z,0.80
2018-12-04T08:16:10.438Z,1.00
2018-12-04T08:18:38.428Z,1.00
2018-12-04T08:21:06.010Z,1.00
2018-12-04T08:23:33.592Z,3.00
2018-12-04T08:26:01.531Z,1.00
2018-12-04T08:28:29.105Z,2.20
2018-12-04T08:30:56.736Z,3.00
2018-12-04T08:33:24.751Z,3.00
2018-12-04T08:35:52.453Z,1.00
2018-12-04T08:38:20.077Z,2.20
2018-12-04T08:40:48.123Z,1.00
2018-12-04T08:43:15.750Z,1.00
2018-12-04T08:45:43.344Z,1.00
2018-12-04T08:48:11.317Z,1.00
2018-12-04T08:50:39.784Z,0.00
2018-12-04T08:53:07.388Z,1.00
2018-12-04T08:55:35.422Z,1.00
2018-12-04T08:58:03.042Z,0.40
2018-12-04T09:00:30.610Z,1.00
2018-12-04T09:02:58.613Z,0.00
2018-12-04T09:05:26.259Z,0.00
2018-12-04T09:07:53.853Z,0.80
2018-12-04T09:10:23.230Z,0.00
2018-12-04T09:12:50.855Z,0.00
2018-12-04T09:15:18.466Z,0.00
2018-12-04T09:17:46.438Z,1.80
2018-12-04T09:20:14.085Z,0.60
2018-12-04T09:22:41.758Z,1.00
2018-12-04T09:25:09.918Z,1.00
2018-12-04T09:27:37.565Z,0.00
2018-12-04T09:30:05.344Z,1.00
2018-12-04T09:32:34.405Z,1.00
2018-12-04T09:35:02.080Z,0.80
2018-12-04T09:37:29.690Z,0.60
2018-12-04T09:39:58.546Z,1.00
2018-12-04T09:42:26.150Z,0.60
2018-12-04T09:44:53.813Z,1.00
2018-12-04T09:47:21.854Z,1.40
2018-12-04T09:49:49.509Z,0.00
2018-12-04T09:52:17.916Z,1.00
2018-12-04T09:54:45.867Z,1.00
2018-12-04T09:57:13.501Z,2.60
2018-12-04T09:59:41.945Z,0.00
2018-12-04T10:02:09.876Z,1.00
2018-12-04T10:04:37.508Z,0.40
2018-12-04T10:07:05.745Z,0.80
2018-12-04T10:09:34.549Z,1.00
2018-12-04T10:12:02.144Z,1.00
2018-12-04T10:14:29.790Z,1.80
2018-12-04T10:16:57.769Z,0.60
2018-12-04T10:19:25.375Z,0.00
2018-12-04T10:21:52.970Z,1.00
2018-12-04T10:24:20.992Z,3.20
2018-12-04T10:26:52.666Z,1.40
2018-12-04T10:29:20.295Z,3.00
2018-12-04T10:31:48.293Z,1.00
2018-12-04T10:34:15.935Z,1.00
2018-12-04T10:36:43.544Z,0.00
2018-12-04T10:39:11.539Z,1.00
2018-12-04T10:41:39.141Z,1.00
2018-12-04T10:44:06.752Z,0.60
2018-12-04T10:46:34.782Z,0.00
2018-12-04T10:49:02.882Z,0.00
2018-12-04T10:51:30.547Z,1.00
2018-12-04T10:53:59.553Z,0.20
2018-12-04T10:56:28.131Z,1.00
2018-12-04T10:58:57.059Z,0.00
2018-12-04T11:01:29.057Z,1.00
2018-12-04T11:03:56.833Z,0.00
2018-12-04T11:06:24.484Z,0.00
2018-12-04T11:08:52.515Z,0.00
2018-12-04T11:11:20.913Z,0.20
2018-12-04T11:13:48.580Z,1.00
2018-12-04T11:16:16.514Z,0.00
2018-12-04T11:18:44.104Z,0.40
2018-12-04T11:21:12.562Z,0.00
2018-12-04T11:23:40.561Z,0.00
2018-12-04T11:26:08.299Z,0.00
2018-12-04T11:28:35.952Z,0.00
2018-12-04T11:31:03.933Z,0.40
2018-12-04T11:33:31.591Z,0.00
2018-12-04T11:35:59.254Z,0.00
2018-12-04T11:38:28.213Z,0.80
2018-12-04T11:40:56.420Z,0.00
2018-12-04T11:43:24.061Z,0.60
2018-12-04T11:45:51.816Z,0.20
2018-12-04T11:48:19.564Z,0.00
2018-12-04T11:50:47.481Z,0.40
2018-12-04T11:53:15.108Z,0.00
2018-12-04T11:55:42.733Z,0.00
2018-12-04T11:58:12.563Z,0.00
2018-12-04T12:00:40.291Z,0.80
2018-12-04T12:03:07.986Z,1.20
2018-12-04T12:05:37.131Z,0.00
2018-12-04T12:08:05.719Z,0.40
2018-12-04T12:10:33.413Z,0.00
2018-12-04T12:13:01.382Z,0.00
2018-12-04T12:15:29.115Z,0.00
2018-12-04T12:17:56.737Z,0.00
2018-12-04T12:20:24.778Z,0.00
2018-12-04T12:22:52.465Z,0.00
2018-12-04T12:25:20.744Z,0.00
2018-12-04T12:27:48.821Z,0.00
2018-12-04T12:30:16.456Z,0.00
2018-12-04T12:32:44.090Z,0.00
2018-12-04T12:35:12.185Z,0.00
2018-12-04T12:37:40.665Z,0.00
2018-12-04T12:40:08.286Z,0.00
2018-12-04T12:42:37.297Z,0.00
2018-12-04T12:45:04.909Z,1.00
2018-12-04T12:47:32.546Z,0.00
2018-12-04T12:50:01.219Z,0.20
2018-12-04T12:52:30.603Z,0.00
2018-12-04T12:54:58.185Z,0.00
2018-12-04T12:57:26.461Z,0.00
2018-12-04T12:59:54.109Z,0.00
2018-12-04T13:02:21.774Z,0.00
2018-12-04T13:04:49.729Z,0.00
2018-12-04T13:07:17.407Z,0.00
2018-12-04T13:09:45.918Z,0.00
2018-12-04T13:12:14.648Z,0.00
2018-12-04T13:14:42.336Z,0.00
2018-12-04T13:17:10.543Z,0.00
2018-12-04T13:19:38.706Z,0.00
2018-12-04T13:22:06.326Z,0.00
2018-12-04T13:24:33.977Z,0.00
2018-12-04T13:27:02.139Z,0.00
2018-12-04T13:29:32.293Z,0.20
2018-12-04T13:32:00.717Z,0.00
2018-12-04T13:34:29.209Z,1.00
2018-12-04T13:36:58.727Z,0.00
2018-12-04T13:39:27.103Z,0.00
2018-12-04T13:41:55.288Z,0.00
2018-12-04T13:44:23.650Z,0.00
2018-12-04T13:46:51.259Z,0.00
2018-12-04T13:49:19.330Z,0.00
2018-12-04T13:51:47.036Z,0.00
2018-12-04T13:54:15.461Z,0.00
2018-12-04T13:56:43.569Z,0.20
2018-12-04T13:59:11.217Z,0.00
2018-12-04T14:01:39.507Z,1.00
2018-12-04T14:04:07.593Z,1.00
2018-12-04T14:06:35.231Z,0.20
2018-12-04T14:09:03.953Z,0.00
2018-12-04T14:11:31.959Z,0.00
2018-12-04T14:14:00.219Z,1.00
2018-12-04T14:16:27.826Z,0.00
2018-12-04T14:18:55.754Z,1.00
2018-12-04T14:21:24.795Z,0.80
2018-12-04T14:23:52.403Z,0.00
2018-12-04T14:26:20.509Z,0.00
2018-12-04T14:28:48.113Z,0.00
2018-12-04T14:31:16.509Z,0.00
2018-12-04T14:33:44.766Z,0.00
2018-12-04T14:36:12.866Z,0.00
2018-12-04T14:38:40.666Z,0.00
2018-12-04T14:41:08.669Z,0.20
2018-12-04T14:43:37.517Z,0.00
2018-12-04T14:46:05.160Z,0.00
2018-12-04T14:48:33.620Z,0.00
2018-12-04T14:51:01.314Z,0.00
2018-12-04T14:53:28.981Z,0.00
2018-12-04T14:55:57.590Z,0.00
2018-12-04T14:58:25.230Z,0.00
2018-12-04T15:00:52.881Z,0.00
2018-12-04T15:03:20.836Z,0.00
2018-12-04T15:05:48.472Z,0.00
2018-12-04T15:08:16.049Z,0.00
2018-12-04T15:10:44.649Z,0.00
2018-12-04T15:13:12.492Z,0.80
2018-12-04T15:15:41.379Z,0.00
2018-12-04T15:18:09.466Z,0.80
2018-12-04T15:20:38.083Z,0.20
2018-12-04T15:23:05.731Z,0.40
2018-12-04T15:25:34.621Z,1.00
2018-12-04T15:28:02.314Z,0.00
2018-12-04T15:30:30.072Z,0.00
2018-12-04T15:32:58.257Z,0.00
2018-12-04T15:35:25.901Z,0.20
2018-12-04T15:37:53.549Z,0.00
2018-12-04T15:40:21.533Z,0.60
2018-12-04T15:42:49.205Z,0.00
2018-12-04T15:45:16.866Z,0.40
2018-12-04T15:47:44.727Z,3.00
2018-12-04T15:50:12.961Z,1.00
2018-12-04T15:52:41.720Z,5.60
2018-12-04T15:55:09.543Z,2.20
2018-12-04T15:57:38.157Z,1.00
2018-12-04T16:00:06.093Z,0.80
2018-12-04T16:02:33.699Z,0.00
2018-12-04T16:05:03.067Z,1.00
2018-12-04T16:07:33.154Z,1.00
2018-12-04T16:10:00.758Z,0.00
2018-12-04T16:12:28.403Z,0.20
2018-12-04T16:14:56.324Z,0.60
2018-12-04T16:17:24.199Z,2.20
2018-12-04T16:19:51.846Z,8.20
2018-12-04T16:22:19.785Z,6.00
2018-12-04T16:24:47.417Z,2.60
2018-12-04T16:27:15.146Z,1.00
2018-12-04T16:29:43.112Z,2.20
2018-12-04T16:32:10.748Z,1.00
2018-12-04T16:34:40.925Z,0.00
2018-12-04T16:37:09.193Z,1.80
2018-12-04T16:39:36.777Z,0.40
2018-12-04T16:42:05.054Z,1.00
2018-12-04T16:44:33.066Z,1.40
2018-12-04T16:47:00.731Z,1.00
2018-12-04T16:49:32.309Z,1.00
2018-12-04T16:52:01.101Z,0.00
2018-12-04T16:54:28.730Z,0.00
2018-12-04T16:56:56.345Z,10.40
2018-12-04T16:59:24.501Z,0.40
2018-12-04T17:01:52.176Z,4.40
2018-12-04T17:04:19.798Z,0.00
2018-12-04T17:06:47.706Z,0.40
2018-12-04T17:09:16.373Z,2.60
2018-12-04T17:11:44.670Z,0.00
2018-12-04T17:14:13.681Z,1.00
2018-12-04T17:16:41.439Z,0.00
2018-12-04T17:19:09.223Z,0.00
2018-12-04T17:21:37.130Z,0.80
2018-12-04T17:24:05.375Z,1.00
2018-12-04T17:26:32.986Z,0.20
2018-12-04T17:29:02.032Z,1.00
2018-12-04T17:31:32.637Z,1.00
2018-12-04T17:34:00.266Z,1.80
2018-12-04T17:36:28.359Z,3.80
2018-12-04T17:38:56.002Z,3.00
2018-12-04T17:41:23.630Z,0.20
2018-12-04T17:43:52.952Z,1.00
2018-12-04T17:46:20.585Z,1.40
2018-12-04T17:48:49.088Z,3.20
2018-12-04T17:51:18.076Z,3.00
2018-12-04T17:53:45.661Z,1.00
2018-12-04T17:56:13.559Z,1.00
2018-12-04T17:58:41.594Z,1.00
2018-12-04T18:01:09.348Z,0.00
2018-12-04T18:03:36.941Z,1.00
2018-12-04T18:06:08.622Z,1.00
2018-12-04T18:08:37.040Z,0.00
2018-12-04T18:11:05.689Z,1.00
2018-12-04T18:13:35.753Z,1.00
2018-12-04T18:16:03.354Z,1.40
2018-12-04T18:18:33.258Z,2.60
2018-12-04T18:21:01.279Z,1.00
2018-12-04T18:23:28.895Z,2.20
2018-12-04T18:25:56.523Z,3.00
2018-12-04T18:28:24.565Z,3.20
2018-12-04T18:30:52.173Z,1.00
2018-12-04T18:33:19.790Z,2.20
2018-12-04T18:35:48.636Z,0.00
2018-12-04T18:38:17.357Z,1.00
2018-12-04T18:40:44.993Z,0.40
2018-12-04T18:43:13.024Z,1.00
2018-12-04T18:45:40.664Z,1.00
2018-12-04T18:48:08.280Z,1.00
2018-12-04T18:50:36.234Z,2.60
2018-12-04T18:53:06.745Z,4.00
2018-12-04T18:55:34.359Z,3.00
2018-12-04T18:58:02.390Z,0.00
2018-12-04T19:00:30.535Z,1.00
2018-12-04T19:02:58.171Z,1.40
2018-12-04T19:05:26.222Z,3.00
2018-12-04T19:07:53.801Z,4.80
2018-12-04T19:10:21.717Z,5.20
2018-12-04T19:12:50.046Z,7.00
2018-12-04T19:15:17.664Z,3.20
2018-12-04T19:17:45.297Z,3.40
2018-12-04T19:20:14.637Z,3.00
2018-12-04T19:22:42.274Z,3.00
2018-12-04T19:25:11.681Z,2.60
2018-12-04T19:27:39.636Z,1.00
2018-12-04T19:30:08.970Z,3.20
2018-12-04T19:32:37.401Z,1.40
2018-12-04T19:35:05.322Z,2.20
2018-12-04T19:37:33.020Z,2.20
2018-12-04T19:40:01.694Z,3.00
2018-12-04T19:42:30.648Z,1.80
2018-12-04T19:44:58.277Z,4.00
2018-12-04T19:47:26.537Z,2.20
2018-12-04T19:49:55.139Z,3.00
2018-12-04T19:52:22.766Z,2.60
2018-12-04T19:54:50.485Z,1.00
2018-12-04T19:57:18.762Z,3.00
2018-12-04T19:59:46.506Z,5.20
2018-12-04T20:02:15.223Z,12.80
2018-12-04T20:04:43.360Z,9.80
2018-12-04T20:07:11.693Z,1.00
2018-12-04T20:09:39.343Z,2.60
2018-12-04T20:12:07.545Z,4.00
2018-12-04T20:14:35.212Z,6.00
2018-12-04T20:17:03.477Z,5.60
2018-12-04T20:19:32.383Z,3.00
2018-12-04T20:22:00.589Z,3.20
2018-12-04T20:24:28.291Z,2.60
2018-12-04T20:26:56.332Z,3.60
2018-12-04T20:29:23.958Z,1.00
2018-12-04T20:31:51.636Z,3.40
2018-12-04T20:34:19.624Z,3.00
2018-12-04T20:36:49.193Z,1.00
2018-12-04T20:39:16.805Z,2.60
2018-12-04T20:41:45.495Z,3.20
2018-12-04T20:44:13.128Z,1.80
2018-12-04T20:46:40.832Z,3.40
2018-12-04T20:49:08.624Z,1.80
2018-12-04T20:51:38.140Z,1.80
2018-12-04T20:54:06.096Z,0.60
2018-12-04T20:56:35.383Z,4.00
2018-12-04T20:59:03.942Z,3.00
2018-12-04T21:01:32.089Z,4.00
2018-12-04T21:03:59.742Z,3.00
2018-12-04T21:06:28.775Z,3.00
2018-12-04T21:08:57.557Z,3.00
2018-12-04T21:11:25.266Z,1.00
2018-12-04T21:13:54.295Z,4.80
2018-12-04T21:16:22.414Z,3.60
2018-12-04T21:18:51.306Z,2.60
2018-12-04T21:21:20.496Z,3.00
2018-12-04T21:23:49.137Z,2.20
2018-12-04T21:26:16.748Z,2.60
2018-12-04T21:28:49.005Z,2.20
2018-12-04T21:31:23.600Z,1.00
2018-12-04T21:33:56.534Z,1.00
2018-12-04T21:36:29.230Z,3.00
2018-12-04T21:39:05.029Z,3.40
2018-12-04T21:41:37.736Z,5.20
2018-12-04T21:44:11.415Z,3.40
2018-12-04T21:46:45.007Z,3.60
2018-12-04T21:49:12.664Z,3.60
2018-12-04T21:51:40.659Z,4.40
2018-12-04T21:54:08.311Z,4.00
2018-12-04T21:56:35.995Z,3.20
2018-12-04T21:59:04.608Z,3.00
2018-12-04T22:01:32.553Z,4.20
2018-12-04T22:04:00.172Z,6.20
2018-12-04T22:06:28.767Z,6.40
2018-12-04T22:08:56.749Z,3.20
2018-12-04T22:11:24.774Z,5.20
2018-12-04T22:13:52.504Z,3.00
2018-12-04T22:16:20.110Z,3.20
2018-12-04T22:18:47.746Z,2.60
2018-12-04T22:21:15.422Z,3.80
2018-12-04T22:23:43.531Z,4.40
2018-12-04T22:26:11.208Z,4.80
2018-12-04T22:28:38.809Z,3.60
2018-12-04T22:31:06.735Z,1.00
2018-12-04T22:33:34.336Z,3.00
2018-12-04T22:36:03.146Z,3.20
2018-12-04T22:38:30.862Z,3.00
2018-12-04T22:40:58.782Z,5.20
2018-12-04T22:43:26.414Z,3.00
2018-12-04T22:45:54.059Z,3.00
2018-12-04T22:48:21.682Z,1.00
2018-12-04T22:50:49.541Z,3.40
2018-12-04T22:53:17.716Z,5.80
2018-12-04T22:55:45.821Z,2.20
2018-12-04T22:58:13.453Z,4.80
2018-12-04T23:00:42.648Z,5.80
2018-12-04T23:03:10.655Z,4.80
2018-12-04T23:05:38.298Z,4.40
2018-12-04T23:08:05.979Z,4.80
2018-12-04T23:10:33.643Z,3.40
2018-12-04T23:13:01.693Z,3.20
2018-12-04T23:15:30.513Z,6.00
2018-12-04T23:17:58.359Z,3.00
2018-12-04T23:20:26.014Z,3.20
2018-12-04T23:22:54.118Z,4.80
2018-12-04T23:25:21.749Z,3.00
2018-12-04T23:27:49.350Z,5.60
2018-12-04T23:30:16.993Z,4.00
2018-12-04T23:32:45.017Z,3.20
2018-12-04T23:35:12.613Z,5.60
2018-12-04T23:37:40.324Z,1.00
2018-12-04T23:40:07.954Z,4.60
2018-12-04T23:42:35.891Z,5.20
2018-12-04T23:45:03.529Z,5.40
2018-12-04T23:47:31.123Z,6.40
2018-12-04T23:49:58.758Z,2.60
2018-12-04T23:52:26.394Z,4.80
2018-12-04T23:54:54.422Z,4.00
2018-12-04T23:57:22.029Z,4.80
2018-12-04T23:59:49.640Z,6.40
